sensor_id;sensor_type;location;lat;lon;timestamp;P1;durP1;ratioP1;P2;durP2;ratioP2
73599;SDS011;61877;48.246;9.220;2022-08-18T00:00:00;13.25;;;7.47;;
73599;SDS011;61877;48.246;9.220;2022-08-18T00:02:27;12.82;;;7.50;;
73599;SDS011;61877;48.246;9.220;2022-08-18T00:04:54;13.10;;;6.97;;
73599;SDS011;61877;48.246;9.220;2022-08-18T00:07:21;13.73;;;7.50;;
73599;SDS011;61877;48.246;9.220;2022-08-18T00:09:48;12.85;;;8.02;;
73599;SDS011;61877;48.246;9.220;2022-08-18T00:12:15;12.65;;;7.40;;
73599;SDS011;61877;48.246;9.220;2022-08-18T00:14:44;11.73;;;6.70;;
73599;SDS011;61877;48.246;9.220;2022-08-18T00:17:10;12.98;;;7.13;;
73599;SDS011;61877;48.246;9.220;2022-08-18T00:19:36;12.05;;;6.35;;
73599;SDS011;61877;48.246;9.220;2022-08-18T00:22:02;12.00;;;6.93;;
73599;SDS011;61877;48.246;9.220;2022-08-18T00:24:27;13.48;;;7.03;;
73599;SDS011;61877;48.246;9.220;2022-08-18T00:26:53;11.60;;;6.97;;
73599;SDS011;61877;48.246;9.220;2022-08-18T00:29:18;11.83;;;7.27;;
73599;SDS011;61877;48.246;9.220;2022-08-18T00:31:45;11.98;;;7.13;;
73599;SDS011;61877;48.246;9.220;2022-08-18T00:34:11;12.02;;;7.10;;
73599;SDS011;61877;48.246;9.220;2022-08-18T00:36:36;14.87;;;7.47;;
73599;SDS011;61877;48.246;9.220;2022-08-18T00:39:02;11.83;;;7.40;;
73599;SDS011;61877;48.246;9.220;2022-08-18T00:41:28;12.43;;;7.18;;
73599;SDS011;61877;48.246;9.220;2022-08-18T00:43:54;12.33;;;7.13;;
73599;SDS011;61877;48.246;9.220;2022-08-18T00:46:20;12.85;;;7.32;;
73599;SDS011;61877;48.246;9.220;2022-08-18T00:48:50;10.93;;;6.43;;
73599;SDS011;61877;48.246;9.220;2022-08-18T00:51:16;11.30;;;6.82;;
73599;SDS011;61877;48.246;9.220;2022-08-18T00:53:45;11.60;;;7.17;;
73599;SDS011;61877;48.246;9.220;2022-08-18T00:56:15;11.73;;;6.88;;
73599;SDS011;61877;48.246;9.220;2022-08-18T00:58:45;13.10;;;7.38;;
73599;SDS011;61877;48.246;9.220;2022-08-18T01:01:14;11.80;;;7.03;;
73599;SDS011;61877;48.246;9.220;2022-08-18T01:03:43;11.63;;;6.82;;
73599;SDS011;61877;48.246;9.220;2022-08-18T01:06:13;12.63;;;6.67;;
73599;SDS011;61877;48.246;9.220;2022-08-18T01:08:45;11.50;;;6.70;;
73599;SDS011;61877;48.246;9.220;2022-08-18T01:11:11;12.02;;;7.03;;
73599;SDS011;61877;48.246;9.220;2022-08-18T01:13:36;12.97;;;7.50;;
73599;SDS011;61877;48.246;9.220;2022-08-18T01:16:05;12.77;;;7.18;;
73599;SDS011;61877;48.246;9.220;2022-08-18T01:18:31;11.87;;;6.80;;
73599;SDS011;61877;48.246;9.220;2022-08-18T01:20:58;12.70;;;7.00;;
73599;SDS011;61877;48.246;9.220;2022-08-18T01:23:30;12.23;;;6.90;;
73599;SDS011;61877;48.246;9.220;2022-08-18T01:25:55;16.25;;;7.32;;
73599;SDS011;61877;48.246;9.220;2022-08-18T01:28:21;12.50;;;7.47;;
73599;SDS011;61877;48.246;9.220;2022-08-18T01:30:47;12.02;;;6.97;;
73599;SDS011;61877;48.246;9.220;2022-08-18T01:33:15;12.23;;;6.88;;
73599;SDS011;61877;48.246;9.220;2022-08-18T01:35:40;11.47;;;6.77;;
73599;SDS011;61877;48.246;9.220;2022-08-18T01:38:08;11.80;;;7.03;;
73599;SDS011;61877;48.246;9.220;2022-08-18T01:40:35;11.63;;;6.93;;
73599;SDS011;61877;48.246;9.220;2022-08-18T01:43:00;11.88;;;6.88;;
73599;SDS011;61877;48.246;9.220;2022-08-18T01:45:26;12.80;;;7.57;;
73599;SDS011;61877;48.246;9.220;2022-08-18T01:47:51;13.07;;;7.40;;
73599;SDS011;61877;48.246;9.220;2022-08-18T01:50:17;11.20;;;6.65;;
73599;SDS011;61877;48.246;9.220;2022-08-18T01:52:42;11.77;;;6.73;;
73599;SDS011;61877;48.246;9.220;2022-08-18T01:55:08;12.40;;;6.90;;
73599;SDS011;61877;48.246;9.220;2022-08-18T01:57:36;11.50;;;6.80;;
73599;SDS011;61877;48.246;9.220;2022-08-18T02:00:03;11.50;;;6.90;;
73599;SDS011;61877;48.246;9.220;2022-08-18T02:02:29;12.43;;;7.38;;
73599;SDS011;61877;48.246;9.220;2022-08-18T02:04:58;12.23;;;6.93;;
73599;SDS011;61877;48.246;9.220;2022-08-18T02:07:26;12.20;;;7.40;;
73599;SDS011;61877;48.246;9.220;2022-08-18T02:09:52;13.25;;;7.68;;
73599;SDS011;61877;48.246;9.220;2022-08-18T02:12:18;12.60;;;7.47;;
73599;SDS011;61877;48.246;9.220;2022-08-18T02:14:45;12.65;;;7.47;;
73599;SDS011;61877;48.246;9.220;2022-08-18T02:17:11;13.73;;;7.77;;
73599;SDS011;61877;48.246;9.220;2022-08-18T02:19:38;13.48;;;7.20;;
73599;SDS011;61877;48.246;9.220;2022-08-18T02:22:06;11.93;;;6.82;;
73599;SDS011;61877;48.246;9.220;2022-08-18T02:24:32;12.48;;;7.55;;
73599;SDS011;61877;48.246;9.220;2022-08-18T02:26:58;12.80;;;7.60;;
73599;SDS011;61877;48.246;9.220;2022-08-18T02:29:23;12.75;;;7.85;;
73599;SDS011;61877;48.246;9.220;2022-08-18T02:31:50;12.17;;;7.17;;
73599;SDS011;61877;48.246;9.220;2022-08-18T02:34:16;12.35;;;7.72;;
73599;SDS011;61877;48.246;9.220;2022-08-18T02:36:41;13.27;;;7.73;;
73599;SDS011;61877;48.246;9.220;2022-08-18T02:39:07;12.20;;;6.97;;
73599;SDS011;61877;48.246;9.220;2022-08-18T02:41:32;11.97;;;7.13;;
73599;SDS011;61877;48.246;9.220;2022-08-18T02:43:57;11.50;;;7.10;;
73599;SDS011;61877;48.246;9.220;2022-08-18T02:46:23;11.97;;;7.43;;
73599;SDS011;61877;48.246;9.220;2022-08-18T02:48:51;12.98;;;7.93;;
73599;SDS011;61877;48.246;9.220;2022-08-18T02:51:16;12.68;;;7.60;;
73599;SDS011;61877;48.246;9.220;2022-08-18T02:53:43;12.60;;;7.37;;
73599;SDS011;61877;48.246;9.220;2022-08-18T02:56:10;12.15;;;6.80;;
73599;SDS011;61877;48.246;9.220;2022-08-18T02:58:37;12.10;;;7.28;;
73599;SDS011;61877;48.246;9.220;2022-08-18T03:01:02;12.13;;;7.40;;
73599;SDS011;61877;48.246;9.220;2022-08-18T03:03:28;11.73;;;6.97;;
73599;SDS011;61877;48.246;9.220;2022-08-18T03:05:54;12.87;;;7.20;;
73599;SDS011;61877;48.246;9.220;2022-08-18T03:08:20;11.75;;;7.60;;
73599;SDS011;61877;48.246;9.220;2022-08-18T03:10:45;12.53;;;7.60;;
73599;SDS011;61877;48.246;9.220;2022-08-18T03:13:15;12.13;;;7.43;;
73599;SDS011;61877;48.246;9.220;2022-08-18T03:15:40;12.50;;;7.70;;
73599;SDS011;61877;48.246;9.220;2022-08-18T03:18:06;12.40;;;7.10;;
73599;SDS011;61877;48.246;9.220;2022-08-18T03:20:31;13.37;;;7.10;;
73599;SDS011;61877;48.246;9.220;2022-08-18T03:22:58;13.40;;;7.23;;
73599;SDS011;61877;48.246;9.220;2022-08-18T03:25:23;11.48;;;7.07;;
73599;SDS011;61877;48.246;9.220;2022-08-18T03:27:49;15.03;;;7.80;;
73599;SDS011;61877;48.246;9.220;2022-08-18T03:30:15;13.03;;;7.23;;
73599;SDS011;61877;48.246;9.220;2022-08-18T03:32:40;11.63;;;7.05;;
73599;SDS011;61877;48.246;9.220;2022-08-18T03:35:06;13.40;;;7.10;;
73599;SDS011;61877;48.246;9.220;2022-08-18T03:37:32;11.98;;;7.00;;
73599;SDS011;61877;48.246;9.220;2022-08-18T03:39:59;11.80;;;6.97;;
73599;SDS011;61877;48.246;9.220;2022-08-18T03:42:24;12.48;;;6.90;;
73599;SDS011;61877;48.246;9.220;2022-08-18T03:44:49;11.53;;;7.00;;
73599;SDS011;61877;48.246;9.220;2022-08-18T03:47:15;12.53;;;7.50;;
73599;SDS011;61877;48.246;9.220;2022-08-18T03:49:40;13.97;;;7.50;;
73599;SDS011;61877;48.246;9.220;2022-08-18T03:52:06;12.25;;;7.20;;
73599;SDS011;61877;48.246;9.220;2022-08-18T03:54:32;12.50;;;7.30;;
73599;SDS011;61877;48.246;9.220;2022-08-18T03:56:58;12.15;;;7.47;;
73599;SDS011;61877;48.246;9.220;2022-08-18T03:59:24;15.45;;;7.68;;
73599;SDS011;61877;48.246;9.220;2022-08-18T04:01:51;12.10;;;6.93;;
73599;SDS011;61877;48.246;9.220;2022-08-18T04:04:18;13.15;;;7.93;;
73599;SDS011;61877;48.246;9.220;2022-08-18T04:06:47;13.50;;;8.25;;
73599;SDS011;61877;48.246;9.220;2022-08-18T04:09:14;16.15;;;9.20;;
73599;SDS011;61877;48.246;9.220;2022-08-18T04:11:41;16.60;;;9.02;;
73599;SDS011;61877;48.246;9.220;2022-08-18T04:14:09;16.67;;;8.77;;
73599;SDS011;61877;48.246;9.220;2022-08-18T04:16:36;18.70;;;9.27;;
73599;SDS011;61877;48.246;9.220;2022-08-18T04:19:02;17.48;;;8.65;;
73599;SDS011;61877;48.246;9.220;2022-08-18T04:21:28;15.27;;;8.27;;
73599;SDS011;61877;48.246;9.220;2022-08-18T04:23:54;18.45;;;8.80;;
73599;SDS011;61877;48.246;9.220;2022-08-18T04:26:19;16.03;;;8.53;;
73599;SDS011;61877;48.246;9.220;2022-08-18T04:28:44;15.30;;;8.60;;
73599;SDS011;61877;48.246;9.220;2022-08-18T04:31:12;18.03;;;8.90;;
73599;SDS011;61877;48.246;9.220;2022-08-18T04:33:39;19.35;;;10.07;;
73599;SDS011;61877;48.246;9.220;2022-08-18T04:36:08;19.58;;;10.60;;
73599;SDS011;61877;48.246;9.220;2022-08-18T04:38:35;17.60;;;9.77;;
73599;SDS011;61877;48.246;9.220;2022-08-18T04:41:00;19.77;;;10.20;;
73599;SDS011;61877;48.246;9.220;2022-08-18T04:43:26;19.23;;;10.98;;
73599;SDS011;61877;48.246;9.220;2022-08-18T04:45:51;17.50;;;9.40;;
73599;SDS011;61877;48.246;9.220;2022-08-18T04:48:18;18.37;;;9.67;;
73599;SDS011;61877;48.246;9.220;2022-08-18T04:50:44;17.30;;;10.02;;
73599;SDS011;61877;48.246;9.220;2022-08-18T04:53:09;17.50;;;10.20;;
73599;SDS011;61877;48.246;9.220;2022-08-18T04:55:34;18.23;;;9.97;;
73599;SDS011;61877;48.246;9.220;2022-08-18T04:58:00;18.70;;;10.70;;
73599;SDS011;61877;48.246;9.220;2022-08-18T05:00:25;17.48;;;9.95;;
73599;SDS011;61877;48.246;9.220;2022-08-18T05:02:50;18.30;;;10.27;;
73599;SDS011;61877;48.246;9.220;2022-08-18T05:05:17;17.67;;;10.20;;
73599;SDS011;61877;48.246;9.220;2022-08-18T05:07:43;18.25;;;10.45;;
73599;SDS011;61877;48.246;9.220;2022-08-18T05:10:09;18.67;;;10.63;;
73599;SDS011;61877;48.246;9.220;2022-08-18T05:12:35;19.67;;;10.73;;
73599;SDS011;61877;48.246;9.220;2022-08-18T05:15:00;17.47;;;10.10;;
73599;SDS011;61877;48.246;9.220;2022-08-18T05:17:26;19.03;;;10.43;;
73599;SDS011;61877;48.246;9.220;2022-08-18T05:19:52;18.92;;;10.75;;
73599;SDS011;61877;48.246;9.220;2022-08-18T05:22:18;19.73;;;10.37;;
73599;SDS011;61877;48.246;9.220;2022-08-18T05:24:44;17.83;;;10.27;;
73599;SDS011;61877;48.246;9.220;2022-08-18T05:27:10;18.45;;;10.82;;
73599;SDS011;61877;48.246;9.220;2022-08-18T05:29:36;18.37;;;10.43;;
73599;SDS011;61877;48.246;9.220;2022-08-18T05:32:01;16.10;;;9.73;;
73599;SDS011;61877;48.246;9.220;2022-08-18T05:34:28;17.98;;;10.52;;
73599;SDS011;61877;48.246;9.220;2022-08-18T05:36:57;16.30;;;9.75;;
73599;SDS011;61877;48.246;9.220;2022-08-18T05:39:37;16.70;;;9.90;;
73599;SDS011;61877;48.246;9.220;2022-08-18T05:42:10;17.40;;;10.00;;
73599;SDS011;61877;48.246;9.220;2022-08-18T05:44:39;15.68;;;9.32;;
73599;SDS011;61877;48.246;9.220;2022-08-18T05:47:11;16.48;;;10.00;;
73599;SDS011;61877;48.246;9.220;2022-08-18T05:49:38;15.98;;;9.45;;
73599;SDS011;61877;48.246;9.220;2022-08-18T05:52:07;16.33;;;9.75;;
73599;SDS011;61877;48.246;9.220;2022-08-18T05:54:40;15.70;;;9.20;;
73599;SDS011;61877;48.246;9.220;2022-08-18T05:57:11;16.08;;;9.35;;
73599;SDS011;61877;48.246;9.220;2022-08-18T05:59:42;16.48;;;9.27;;
73599;SDS011;61877;48.246;9.220;2022-08-18T06:02:10;15.23;;;8.63;;
73599;SDS011;61877;48.246;9.220;2022-08-18T06:04:41;14.90;;;8.98;;
73599;SDS011;61877;48.246;9.220;2022-08-18T06:07:11;16.23;;;9.20;;
73599;SDS011;61877;48.246;9.220;2022-08-18T06:09:42;15.73;;;8.85;;
73599;SDS011;61877;48.246;9.220;2022-08-18T06:12:23;15.80;;;9.25;;
73599;SDS011;61877;48.246;9.220;2022-08-18T06:14:52;15.63;;;9.43;;
73599;SDS011;61877;48.246;9.220;2022-08-18T06:17:30;15.35;;;9.15;;
73599;SDS011;61877;48.246;9.220;2022-08-18T06:20:09;15.77;;;9.10;;
73599;SDS011;61877;48.246;9.220;2022-08-18T06:22:46;17.13;;;9.27;;
73599;SDS011;61877;48.246;9.220;2022-08-18T06:25:19;15.63;;;9.05;;
73599;SDS011;61877;48.246;9.220;2022-08-18T06:27:51;17.02;;;9.35;;
73599;SDS011;61877;48.246;9.220;2022-08-18T06:30:26;15.30;;;8.90;;
73599;SDS011;61877;48.246;9.220;2022-08-18T06:33:09;15.40;;;8.43;;
73599;SDS011;61877;48.246;9.220;2022-08-18T06:35:42;15.88;;;9.07;;
73599;SDS011;61877;48.246;9.220;2022-08-18T06:38:17;15.20;;;8.80;;
73599;SDS011;61877;48.246;9.220;2022-08-18T06:41:03;16.33;;;9.45;;
73599;SDS011;61877;48.246;9.220;2022-08-18T06:43:34;16.73;;;8.98;;
73599;SDS011;61877;48.246;9.220;2022-08-18T06:46:02;16.90;;;9.83;;
73599;SDS011;61877;48.246;9.220;2022-08-18T06:48:35;16.17;;;9.32;;
73599;SDS011;61877;48.246;9.220;2022-08-18T06:51:06;19.02;;;10.50;;
73599;SDS011;61877;48.246;9.220;2022-08-18T06:53:48;19.02;;;10.57;;
73599;SDS011;61877;48.246;9.220;2022-08-18T06:56:22;17.10;;;9.88;;
73599;SDS011;61877;48.246;9.220;2022-08-18T06:58:49;15.93;;;9.40;;
73599;SDS011;61877;48.246;9.220;2022-08-18T07:01:14;17.92;;;10.38;;
73599;SDS011;61877;48.246;9.220;2022-08-18T07:03:42;18.17;;;9.67;;
73599;SDS011;61877;48.246;9.220;2022-08-18T07:06:27;18.95;;;9.52;;
73599;SDS011;61877;48.246;9.220;2022-08-18T07:08:55;15.15;;;8.52;;
73599;SDS011;61877;48.246;9.220;2022-08-18T07:11:58;15.70;;;9.25;;
73599;SDS011;61877;48.246;9.220;2022-08-18T07:14:26;15.38;;;9.00;;
73599;SDS011;61877;48.246;9.220;2022-08-18T07:16:59;16.70;;;8.77;;
73599;SDS011;61877;48.246;9.220;2022-08-18T07:19:30;15.80;;;9.00;;
73599;SDS011;61877;48.246;9.220;2022-08-18T07:21:59;14.10;;;8.37;;
73599;SDS011;61877;48.246;9.220;2022-08-18T07:24:27;14.43;;;8.38;;
73599;SDS011;61877;48.246;9.220;2022-08-18T07:26:58;15.93;;;8.80;;
73599;SDS011;61877;48.246;9.220;2022-08-18T07:29:26;14.13;;;8.43;;
73599;SDS011;61877;48.246;9.220;2022-08-18T07:31:53;14.30;;;8.38;;
73599;SDS011;61877;48.246;9.220;2022-08-18T07:34:21;13.75;;;8.13;;
73599;SDS011;61877;48.246;9.220;2022-08-18T07:36:53;13.25;;;7.90;;
73599;SDS011;61877;48.246;9.220;2022-08-18T07:39:26;14.85;;;7.75;;
73599;SDS011;61877;48.246;9.220;2022-08-18T07:41:55;16.43;;;8.00;;
73599;SDS011;61877;48.246;9.220;2022-08-18T07:44:31;12.93;;;7.88;;
73599;SDS011;61877;48.246;9.220;2022-08-18T07:47:05;13.98;;;8.25;;
73599;SDS011;61877;48.246;9.220;2022-08-18T07:49:42;13.88;;;8.05;;
73599;SDS011;61877;48.246;9.220;2022-08-18T07:52:11;12.70;;;8.05;;
73599;SDS011;61877;48.246;9.220;2022-08-18T07:54:46;13.13;;;8.00;;
73599;SDS011;61877;48.246;9.220;2022-08-18T07:57:24;12.68;;;7.80;;
73599;SDS011;61877;48.246;9.220;2022-08-18T08:00:00;12.60;;;7.30;;
73599;SDS011;61877;48.246;9.220;2022-08-18T08:02:34;12.43;;;7.30;;
73599;SDS011;61877;48.246;9.220;2022-08-18T08:05:12;15.30;;;8.13;;
73599;SDS011;61877;48.246;9.220;2022-08-18T08:07:47;13.30;;;8.10;;
73599;SDS011;61877;48.246;9.220;2022-08-18T08:13:09;12.75;;;8.07;;
73599;SDS011;61877;48.246;9.220;2022-08-18T08:15:46;13.25;;;8.25;;
73599;SDS011;61877;48.246;9.220;2022-08-18T08:18:20;14.70;;;8.68;;
73599;SDS011;61877;48.246;9.220;2022-08-18T08:20:57;13.53;;;8.30;;
73599;SDS011;61877;48.246;9.220;2022-08-18T08:23:28;14.02;;;8.00;;
73599;SDS011;61877;48.246;9.220;2022-08-18T08:26:13;13.73;;;7.80;;
73599;SDS011;61877;48.246;9.220;2022-08-18T08:28:50;13.23;;;8.07;;
73599;SDS011;61877;48.246;9.220;2022-08-18T08:31:24;15.40;;;8.45;;
73599;SDS011;61877;48.246;9.220;2022-08-18T08:33:55;13.77;;;7.93;;
73599;SDS011;61877;48.246;9.220;2022-08-18T08:36:27;13.65;;;8.15;;
73599;SDS011;61877;48.246;9.220;2022-08-18T08:38:58;13.07;;;8.35;;
73599;SDS011;61877;48.246;9.220;2022-08-18T08:41:28;13.10;;;8.50;;
73599;SDS011;61877;48.246;9.220;2022-08-18T08:44:01;13.80;;;8.68;;
73599;SDS011;61877;48.246;9.220;2022-08-18T08:46:32;14.37;;;8.07;;
73599;SDS011;61877;48.246;9.220;2022-08-18T08:49:06;13.40;;;7.93;;
73599;SDS011;61877;48.246;9.220;2022-08-18T08:51:40;13.27;;;8.15;;
73599;SDS011;61877;48.246;9.220;2022-08-18T08:54:12;11.93;;;7.30;;
73599;SDS011;61877;48.246;9.220;2022-08-18T08:56:41;12.25;;;7.35;;
73599;SDS011;61877;48.246;9.220;2022-08-18T08:59:13;11.57;;;7.23;;
73599;SDS011;61877;48.246;9.220;2022-08-18T09:01:42;12.10;;;7.28;;
73599;SDS011;61877;48.246;9.220;2022-08-18T09:04:16;11.35;;;7.00;;
73599;SDS011;61877;48.246;9.220;2022-08-18T09:06:50;10.80;;;6.72;;
73599;SDS011;61877;48.246;9.220;2022-08-18T09:09:35;12.35;;;7.03;;
73599;SDS011;61877;48.246;9.220;2022-08-18T09:12:22;11.50;;;6.50;;
73599;SDS011;61877;48.246;9.220;2022-08-18T09:18:06;10.20;;;6.38;;
73599;SDS011;61877;48.246;9.220;2022-08-18T09:20:58;10.10;;;6.70;;
73599;SDS011;61877;48.246;9.220;2022-08-18T09:23:38;11.77;;;6.63;;
73599;SDS011;61877;48.246;9.220;2022-08-18T09:26:23;10.77;;;6.57;;
73599;SDS011;61877;48.246;9.220;2022-08-18T09:28:53;11.57;;;6.18;;
73599;SDS011;61877;48.246;9.220;2022-08-18T09:31:22;11.13;;;5.90;;
73599;SDS011;61877;48.246;9.220;2022-08-18T09:33:52;9.23;;;5.75;;
73599;SDS011;61877;48.246;9.220;2022-08-18T09:36:32;10.10;;;6.00;;
73599;SDS011;61877;48.246;9.220;2022-08-18T09:39:08;9.03;;;5.93;;
73599;SDS011;61877;48.246;9.220;2022-08-18T09:41:46;11.80;;;6.50;;
73599;SDS011;61877;48.246;9.220;2022-08-18T09:44:14;10.10;;;6.38;;
73599;SDS011;61877;48.246;9.220;2022-08-18T09:53:14;9.30;;;5.87;;
73599;SDS011;61877;48.246;9.220;2022-08-18T09:55:56;10.70;;;6.22;;
73599;SDS011;61877;48.246;9.220;2022-08-18T10:04:17;10.25;;;6.47;;
73599;SDS011;61877;48.246;9.220;2022-08-18T10:06:51;10.13;;;6.07;;
73599;SDS011;61877;48.246;9.220;2022-08-18T10:12:10;11.23;;;6.28;;
73599;SDS011;61877;48.246;9.220;2022-08-18T10:14:52;9.95;;;5.72;;
73599;SDS011;61877;48.246;9.220;2022-08-18T10:17:34;10.38;;;5.82;;
73599;SDS011;61877;48.246;9.220;2022-08-18T10:20:16;9.53;;;5.60;;
73599;SDS011;61877;48.246;9.220;2022-08-18T10:22:53;9.40;;;5.55;;
73599;SDS011;61877;48.246;9.220;2022-08-18T10:25:30;9.60;;;5.88;;
73599;SDS011;61877;48.246;9.220;2022-08-18T10:27:57;9.90;;;6.28;;
73599;SDS011;61877;48.246;9.220;2022-08-18T10:36:32;9.88;;;5.88;;
73599;SDS011;61877;48.246;9.220;2022-08-18T10:39:04;9.95;;;6.35;;
73599;SDS011;61877;48.246;9.220;2022-08-18T10:41:31;10.40;;;6.40;;
73599;SDS011;61877;48.246;9.220;2022-08-18T10:44:00;10.00;;;6.65;;
73599;SDS011;61877;48.246;9.220;2022-08-18T10:46:28;10.70;;;6.53;;
73599;SDS011;61877;48.246;9.220;2022-08-18T10:49:01;9.95;;;6.65;;
73599;SDS011;61877;48.246;9.220;2022-08-18T10:51:46;10.45;;;6.18;;
73599;SDS011;61877;48.246;9.220;2022-08-18T10:55:03;10.97;;;6.40;;
73599;SDS011;61877;48.246;9.220;2022-08-18T10:57:40;10.05;;;6.45;;
73599;SDS011;61877;48.246;9.220;2022-08-18T11:00:34;10.70;;;6.45;;
73599;SDS011;61877;48.246;9.220;2022-08-18T11:03:12;9.38;;;5.88;;
73599;SDS011;61877;48.246;9.220;2022-08-18T11:05:45;11.85;;;6.68;;
73599;SDS011;61877;48.246;9.220;2022-08-18T11:08:11;9.97;;;6.20;;
73599;SDS011;61877;48.246;9.220;2022-08-18T11:10:41;10.35;;;6.50;;
73599;SDS011;61877;48.246;9.220;2022-08-18T11:13:09;10.53;;;6.50;;
73599;SDS011;61877;48.246;9.220;2022-08-18T11:15:46;10.52;;;6.55;;
73599;SDS011;61877;48.246;9.220;2022-08-18T11:18:29;9.80;;;6.15;;
73599;SDS011;61877;48.246;9.220;2022-08-18T11:24:04;10.77;;;6.80;;
73599;SDS011;61877;48.246;9.220;2022-08-18T11:26:42;12.70;;;6.60;;
73599;SDS011;61877;48.246;9.220;2022-08-18T11:29:21;11.55;;;6.80;;
73599;SDS011;61877;48.246;9.220;2022-08-18T11:31:50;12.25;;;7.32;;
73599;SDS011;61877;48.246;9.220;2022-08-18T11:34:22;10.60;;;6.75;;
73599;SDS011;61877;48.246;9.220;2022-08-18T11:36:53;11.07;;;6.88;;
73599;SDS011;61877;48.246;9.220;2022-08-18T11:39:20;11.97;;;7.30;;
73599;SDS011;61877;48.246;9.220;2022-08-18T11:41:47;10.45;;;6.80;;
73599;SDS011;61877;48.246;9.220;2022-08-18T11:44:15;10.70;;;6.75;;
73599;SDS011;61877;48.246;9.220;2022-08-18T11:46:43;11.20;;;7.10;;
73599;SDS011;61877;48.246;9.220;2022-08-18T11:49:14;10.57;;;6.53;;
73599;SDS011;61877;48.246;9.220;2022-08-18T11:51:52;10.73;;;6.77;;
73599;SDS011;61877;48.246;9.220;2022-08-18T11:54:20;10.88;;;6.70;;
73599;SDS011;61877;48.246;9.220;2022-08-18T11:56:48;11.73;;;6.82;;
73599;SDS011;61877;48.246;9.220;2022-08-18T11:59:29;10.32;;;6.70;;
73599;SDS011;61877;48.246;9.220;2022-08-18T12:01:55;11.07;;;7.03;;
73599;SDS011;61877;48.246;9.220;2022-08-18T12:04:22;11.50;;;6.50;;
73599;SDS011;61877;48.246;9.220;2022-08-18T12:06:55;11.98;;;7.75;;
73599;SDS011;61877;48.246;9.220;2022-08-18T12:09:24;10.80;;;6.80;;
73599;SDS011;61877;48.246;9.220;2022-08-18T12:11:57;10.93;;;7.10;;
73599;SDS011;61877;48.246;9.220;2022-08-18T12:14:26;11.10;;;6.30;;
73599;SDS011;61877;48.246;9.220;2022-08-18T12:16:55;10.30;;;6.70;;
73599;SDS011;61877;48.246;9.220;2022-08-18T12:19:21;10.55;;;7.10;;
73599;SDS011;61877;48.246;9.220;2022-08-18T12:21:49;10.32;;;6.57;;
73599;SDS011;61877;48.246;9.220;2022-08-18T12:24:18;11.20;;;6.70;;
73599;SDS011;61877;48.246;9.220;2022-08-18T12:26:45;9.40;;;6.13;;
73599;SDS011;61877;48.246;9.220;2022-08-18T12:29:12;9.57;;;6.18;;
73599;SDS011;61877;48.246;9.220;2022-08-18T12:31:38;10.05;;;6.30;;
73599;SDS011;61877;48.246;9.220;2022-08-18T12:34:03;10.77;;;6.50;;
73599;SDS011;61877;48.246;9.220;2022-08-18T12:36:29;10.00;;;6.20;;
73599;SDS011;61877;48.246;9.220;2022-08-18T12:38:56;10.00;;;6.10;;
73599;SDS011;61877;48.246;9.220;2022-08-18T12:41:21;9.97;;;6.20;;
73599;SDS011;61877;48.246;9.220;2022-08-18T12:43:48;9.35;;;6.07;;
73599;SDS011;61877;48.246;9.220;2022-08-18T12:46:15;9.70;;;6.30;;
73599;SDS011;61877;48.246;9.220;2022-08-18T12:48:40;10.90;;;6.00;;
73599;SDS011;61877;48.246;9.220;2022-08-18T12:51:06;10.43;;;6.23;;
73599;SDS011;61877;48.246;9.220;2022-08-18T12:53:31;8.80;;;5.78;;
73599;SDS011;61877;48.246;9.220;2022-08-18T12:55:57;10.23;;;6.33;;
73599;SDS011;61877;48.246;9.220;2022-08-18T12:58:22;11.13;;;6.73;;
73599;SDS011;61877;48.246;9.220;2022-08-18T13:00:48;10.27;;;6.63;;
73599;SDS011;61877;48.246;9.220;2022-08-18T13:03:15;9.87;;;6.73;;
73599;SDS011;61877;48.246;9.220;2022-08-18T13:05:40;11.45;;;6.50;;
73599;SDS011;61877;48.246;9.220;2022-08-18T13:08:08;10.10;;;6.37;;
73599;SDS011;61877;48.246;9.220;2022-08-18T13:10:40;10.15;;;6.15;;
73599;SDS011;61877;48.246;9.220;2022-08-18T13:13:05;9.70;;;6.13;;
73599;SDS011;61877;48.246;9.220;2022-08-18T13:15:31;10.30;;;6.50;;
73599;SDS011;61877;48.246;9.220;2022-08-18T13:17:56;9.83;;;6.53;;
73599;SDS011;61877;48.246;9.220;2022-08-18T13:20:23;10.25;;;6.50;;
73599;SDS011;61877;48.246;9.220;2022-08-18T13:22:48;10.63;;;6.43;;
73599;SDS011;61877;48.246;9.220;2022-08-18T13:25:16;11.70;;;6.60;;
73599;SDS011;61877;48.246;9.220;2022-08-18T13:27:42;10.33;;;6.63;;
73599;SDS011;61877;48.246;9.220;2022-08-18T13:30:09;11.25;;;6.35;;
73599;SDS011;61877;48.246;9.220;2022-08-18T13:32:36;10.43;;;6.75;;
73599;SDS011;61877;48.246;9.220;2022-08-18T13:35:02;10.53;;;6.63;;
73599;SDS011;61877;48.246;9.220;2022-08-18T13:37:29;11.30;;;7.47;;
73599;SDS011;61877;48.246;9.220;2022-08-18T13:39:55;10.43;;;7.28;;
73599;SDS011;61877;48.246;9.220;2022-08-18T13:42:20;11.97;;;7.60;;
73599;SDS011;61877;48.246;9.220;2022-08-18T13:44:46;10.77;;;7.27;;
73599;SDS011;61877;48.246;9.220;2022-08-18T13:47:11;11.20;;;7.20;;
73599;SDS011;61877;48.246;9.220;2022-08-18T13:49:36;11.00;;;7.25;;
73599;SDS011;61877;48.246;9.220;2022-08-18T13:52:02;12.27;;;7.30;;
73599;SDS011;61877;48.246;9.220;2022-08-18T13:54:31;10.52;;;7.38;;
73599;SDS011;61877;48.246;9.220;2022-08-18T13:56:57;10.53;;;6.83;;
73599;SDS011;61877;48.246;9.220;2022-08-18T13:59:23;12.20;;;7.40;;
73599;SDS011;61877;48.246;9.220;2022-08-18T14:01:49;11.10;;;7.60;;
73599;SDS011;61877;48.246;9.220;2022-08-18T14:04:15;12.38;;;7.82;;
73599;SDS011;61877;48.246;9.220;2022-08-18T14:06:40;12.60;;;7.63;;
73599;SDS011;61877;48.246;9.220;2022-08-18T14:09:06;12.10;;;7.50;;
73599;SDS011;61877;48.246;9.220;2022-08-18T14:11:33;11.80;;;7.80;;
73599;SDS011;61877;48.246;9.220;2022-08-18T14:14:01;11.63;;;7.55;;
73599;SDS011;61877;48.246;9.220;2022-08-18T14:16:26;12.93;;;8.23;;
73599;SDS011;61877;48.246;9.220;2022-08-18T14:18:52;12.40;;;8.13;;
73599;SDS011;61877;48.246;9.220;2022-08-18T14:21:17;13.13;;;8.23;;
73599;SDS011;61877;48.246;9.220;2022-08-18T14:23:42;11.73;;;8.13;;
73599;SDS011;61877;48.246;9.220;2022-08-18T14:26:08;12.15;;;8.30;;
73599;SDS011;61877;48.246;9.220;2022-08-18T14:28:35;11.43;;;7.90;;
73599;SDS011;61877;48.246;9.220;2022-08-18T14:31:01;10.88;;;7.60;;
73599;SDS011;61877;48.246;9.220;2022-08-18T14:33:28;12.75;;;7.93;;
73599;SDS011;61877;48.246;9.220;2022-08-18T14:35:54;11.60;;;8.23;;
73599;SDS011;61877;48.246;9.220;2022-08-18T14:38:19;10.70;;;7.70;;
73599;SDS011;61877;48.246;9.220;2022-08-18T14:40:45;11.73;;;8.07;;
73599;SDS011;61877;48.246;9.220;2022-08-18T14:43:12;11.50;;;8.00;;
73599;SDS011;61877;48.246;9.220;2022-08-18T14:45:40;13.93;;;8.55;;
73599;SDS011;61877;48.246;9.220;2022-08-18T14:48:06;12.57;;;8.55;;
73599;SDS011;61877;48.246;9.220;2022-08-18T14:50:32;11.87;;;8.63;;
73599;SDS011;61877;48.246;9.220;2022-08-18T14:52:57;13.30;;;8.90;;
73599;SDS011;61877;48.246;9.220;2022-08-18T14:55:23;11.95;;;7.72;;
73599;SDS011;61877;48.246;9.220;2022-08-18T14:57:48;12.33;;;8.20;;
73599;SDS011;61877;48.246;9.220;2022-08-18T15:00:17;12.63;;;8.55;;
73599;SDS011;61877;48.246;9.220;2022-08-18T15:02:45;13.07;;;7.90;;
73599;SDS011;61877;48.246;9.220;2022-08-18T15:05:17;12.00;;;8.13;;
73599;SDS011;61877;48.246;9.220;2022-08-18T15:07:45;13.35;;;8.35;;
73599;SDS011;61877;48.246;9.220;2022-08-18T15:10:11;11.80;;;8.37;;
73599;SDS011;61877;48.246;9.220;2022-08-18T15:12:40;11.50;;;8.43;;
73599;SDS011;61877;48.246;9.220;2022-08-18T15:15:09;12.33;;;8.70;;